Course des Découvertes - 03/07/2011

15 Km Nature


Pl Do. Nom - Surname Prénom - Name S-Cat /cat Club - Team TEMPS - Time Km/h /sx
1 93 CANTAGREL NICOLAS MSE 1 CPLP 00:58:48 15,3 1
2 72 SAHUT NORBERT MV1 1 CE BOSCH 01:02:58 14,3 2
3 69 CASSAN JEAN-MICHEL MV2 1 SRA 01:03:32 14,2 3
4 136 CHABBI CHÉRIF MV1 2 NL 01:03:57 14,1 4
5 111 MAZENC SOPHIE FSE 1 NL 01:05:14 13,8 1
6 80 FARNET JEAN-LUC MV1 3 NL 01:05:19 13,8 5
7 44 MONTAMAT JEAN-ROCH MV1 4 NL 01:05:59 13,6 6
8 116 MARRAGOU DAVID MSE 2 NL 01:06:48 13,5 7
9 137 DEREDEC JOSSELIN MV1 5 ATHLETIC COUREURS RODEZ 01:07:12 13,4 8
10 58 LAROUSSE MICHEL MV2 2 RC Arpajon 01:07:40 13,3 9
11 169 LORTAL BENOIT MV1 6 NL 01:08:19 13,2 10
12 66 SAVIGNAC JÉROME MSE 3 Coureur de fond villeneuvois 01:08:24 13,2 11
13 77 CASTELLA YVES MV1 7 TOUROULIS 01:08:30 13,1 12
14 57 MALRIC PATRICK MV2 3 NL 01:09:33 12,9 13
15 55 LABIT LAURENT MSE 4 CPLP 01:09:50 12,9 14
16 148 CRESPO CHRISTOPHE MSE 5 VCAN 01:10:12 12,8 15
17 100 GUARDIA VINCENT MSE 6 VCAN 01:10:12 12,8 16
18 9 ROUSSEL ALAIN MV1 8 ACRA Arles 01:10:32 12,8 17
19 24 PARRA JEAN-DIDIER MV1 9 RC Arpajon 01:11:24 12,6 18
20 106 GINESTET JEROME MV1 10 NL 01:11:24 12,6 19
21 126 JACINTO BRITO MSE 7 TOUROULIS 01:12:36 12,4 20
22 105 GOUT GILLLES MV2 4 NL 01:12:42 12,4 21
23 120 COUDERC CYRIL MV1 11 NL 01:13:57 12,2 22
24 50 CARLES CLAUDE MV3 1 SRA 01:14:01 12,2 23
25 64 GUITOU JEAN-LUC MSE 8 C.A.F 01:14:09 12,1 24
26 115 BULTEL STEPHANE MSE 9 Stade RODEZ ATHLE 01:14:18 12,1 25
27 86 BERAIL ALEXABDRE MSE 10 ASBAI 01:14:46 12,0 26
28 151 BARNABET YANNICK MSE 11 Coureur de fond villeneuvois 01:15:28 11,9 27
29 4 COLLEONI JEAN-JACQUES MV3 2 Muret AC 01:15:35 11,9 28
30 152 OUSTRY GÉRARD MV2 5 NL 01:15:35 11,9 29
31 149 DELAGNES ERIC MV1 12 NL 01:16:21 11,8 30
32 154 ESPINASSE JEAN MARIE MV1 13 Boucle Druelloise 01:16:22 11,8 31
33 54 TARDIEU DAMIEN MSE 12 NL 01:16:23 11,8 32
34 21 CARAYON CHRISTIAN MV1 14 NL 01:16:40 11,7 33
35 36 ROQUES BENOIT MSE 13 TANA QUEST-Flagnac 01:16:45 11,7 34
36 63 HOUBRON FRANCIS MV1 15 C.A.F 01:16:48 11,7 35
37 145 DE LA PLAINE CHRISTINE FSE 2 NL 01:16:57 11,7 2
38 132 MONBOISSE OLIVIER MV1 16 NL 01:17:01 11,7 36
39 91 CADAUX PASCAL MV1 17 ASBAI 01:17:36 11,6 37
40 159 LABURTHE VINCENT MV1 18 Foulées Vertes de Lalo 01:17:45 11,6 38
41 98 SALES VINCENT MV1 19 NL 01:17:59 11,5 39
42 59 PUECHAGUT LAURENT MSE 14 NL 01:18:37 11,4 40
43 134 BACH ERIC MV2 6 NL 01:18:51 11,4 41
44 3 COUDERT GÉRARD MV2 7 NL 01:18:55 11,4 42
45 49 BERTRANDE LAURENT MSE 15 Stade Langonais 01:18:59 11,4 43
46 141 ASFAUX STEPHANE MSE 16 NL 01:19:00 11,4 44
47 68 MARCILHAC GÉRARD MV2 8 Boucle Druelloise 01:19:14 11,4 45
48 40 BOUTONNET STÉPHANE MSE 17 TANA QUEST-Flagnac 01:19:18 11,3 46
49 122 BERTAIN PASCAL MV1 20 NL 01:19:19 11,3 47
50 109 VEYSSIERE JACKY MV3 3 KM19 01:19:25 11,3 48
51 135 ANGLADE JEAN LOUIS MV2 9 TOUROULIS 01:19:37 11,3 49
52 110 FRANCOIS JEAN MV3 4 NL 01:19:41 11,3 50
53 99 TEYSSEDRE NOEL MV1 21 NL 01:19:53 11,3 51
54 22 SALESSE SAMUEL MSE 18 CE SAFRAN 01:19:57 11,3 52
55 168 BRUGEL PATRICK MV2 10 NL 01:20:12 11,2 53
56 114 CHAYRE THIERRY MV1 22   01:20:13 11,2 54
57 127 DONNADIEU LUC MV3 5 NL 01:20:16 11,2 55
58 164 BOULANGER PHILIPPE MV1 23 VCAN 01:20:24 11,2 56
59 48 LAURENS JACQUES MV2 11 Foulées Vertes de Lalo 01:20:36 11,2 57
60 33 FAGES BORIS MSE 19 VCAN 01:20:59 11,1 58
61 173 CUOC PHILIPPE MSE 20 NL 01:21:33 11,0 59
62 153 FRANCOULA PATRICK MV1 24 NL 01:21:41 11,0 60
63 5 PRADIER MICHEL MV3 6 ACRA Arles 01:21:43 11,0 61
64 85 SALAVAN FABIEN MSE 21 ASBAI 01:21:53 11,0 62
65 56 CAPELLE BERNARD MV2 12 F.S.P.N 01:21:55 11,0 63
66 150 FRANC MICHEL MV3 7 NL 01:21:55 11,0 64
67 125 RIERE FRANCOIS MV1 25 NL 01:21:57 11,0 65
68 97 LHERME ALEXIA FSE 3 NL 01:21:58 11,0 3
69 108 DURAND PASCAL MV1 26 NL 01:22:00 11,0 66
70 118 VIEILLEDENT PHILIPPE MV2 13 NL 01:22:00 11,0 67
71 113 LEBLOND SEBASTIEN MV1 27 Stade RODEZ ATHLE 01:22:09 11,0 68
72 163 PEDECHES CHRISTINA MV1 28 NL 01:22:11 11,0 69
73 117 RIGAL DANIEL MV1 29 NL 01:22:11 10,9 70
74 156 CHANUT BERNARD MV3 8 DRUELLOI 01:22:17 10,9 71
75 104 TARDIEU JOËL MV1 30 NL 01:22:20 10,9 72
76 19 RAMETTE LYDIE FV1 1 NL 01:22:41 10,9 4
77 23 POUSSOU JEAN MV2 14 NL 01:22:42 10,9 73
78 175 BONNEFOUS FREDDY MSE 22 NL 01:23:16 10,8 74
79 139 LEPARQ CHRISTOPHE MSE 23 NL 01:23:41 10,8 75
80 107 MAUZAT BERNADETTE FV3 1 NL 01:24:00 10,7 5
81 39 LACOSTE JEAN-LOUIS MV1 31 NL 01:24:08 10,7 76
82 47 HAMY OLIVIER MV1 32 AS Police decazeville 01:24:37 10,6 77
83 67 LABIT PHILIPPE MV1 33 Coureur de fond villeneuvois 01:24:37 10,6 78
84 172 SAINT MARTIN SEBASTIEN MSE 24 NL 01:24:42 10,6 79
85 161 SALINGARDES CORINNE FV1 2 KIWI 01:24:47 10,6 6
86 70 LAUTARD ALINE FSE 4 Foulée Séveracaises 01:24:48 10,6 7
87 140 DESSUEJOULS MICKAEL MSE 25 NL 01:24:48 10,6 80
88 147 MARTY DOMINIQUE MV1 34 Coureur de fond villeneuvois 01:25:00 10,6 81
89 155 FOUBERT VINCENT MSE 26 NL 01:25:43 10,5 82
90 162 LANDEZ OLIVIER MV1 35 NL 01:25:58 10,5 83
91 123 MOULY BERNARD MV2 15 KIWI 01:26:00 10,5 84
92 171 ROUZIES BERNARD MV2 16 TGVR 01:26:01 10,5 85
93 13 CHICCO BETTY FV3 2 ACRA Arles 01:26:27 10,4 8
94 37 ROUX JEAN-FRANCOIS MV1 36 Les Kiwis 01:26:35 10,4 86
95 133 SARRET CHRISTOPHE MV1 37 NL 01:26:36 10,4 87
96 34 FEL CHRISTIAN MV2 17 NL 01:27:19 10,3 88
97 35 MOYSSET ERIC MV2 18 NL 01:27:38 10,3 89
98 10 FRAISSINET RAYMOND MV3 9 ACRA Arles 01:27:51 10,2 90
99 90 BRAS PHILIPPE MSE 27 ASBAI 01:27:52 10,2 91
100 124 LAVIALE FRANCIS MV1 38 NL 01:27:54 10,2 92
101 1 FOLTZENLOGEL NICOLAS MV1 39 NL 01:28:12 10,2 93
102 60 REYNAL JEAN-LOUIS MV3 10 NL 01:28:19 10,2 94
103 79 LEGROS DANIEL MV3 11 VCAN 01:28:27 10,2 95
104 160 COUGOULE PASCAL MSE 28 Foulées Vertes de Lalo 01:28:31 10,2 96
105 83 SEVILLA PASCAL MSE 29 ASBAI 01:28:33 10,2 97
106 119 SALLES FRANÇOIS MARIE MV2 19 NL 01:28:52 10,1 98
107 71 GUILLET JEAN-PASCAL MV2 20 NL 01:29:21 10,1 99
108 88 LAMBERT ARNAUD MSE 30 ASBAI 01:29:38 10,0 100
109 121 UTRILLA MARC MV2 21 NL 01:29:45 10,0 101
110 174 CABROL JULIEN MSE 31 NL 01:29:45 10,0 102
111 84 BORBELY NADIA FSE 5 ASBAI 01:29:55 10,0 9
112 170 CAYLA SEBASTIEN MSE 32 NL 01:30:02 10,0 103
113 25 PARRA-MOMBOISSE EVELYNE FV1 3 RC Arpajon 01:30:02 10,0 10
114 167 TESSIER PHILIPPE MV1 40 NL 01:30:03 10,0 104
115 166 MATEO ALAIN MV2 22 NL 01:30:13 10,0 105
116 94 COMBEMALE OLIVIER MV1 41 NL 01:30:24 10,0 106
117 65 VAYRE DANIEL MV1 42 NL 01:30:43 9,9 107
118 14 BELHAFIANE MOUNIR MSE 33 NL 01:30:43 9,9 108
119 82 BRIGASCO SAMULE MV1 43 NL 01:31:09 9,9 109
120 62 CROS MICHEL MV2 23 C.A.F 01:31:18 9,9 110
121 101 CAMPERGUE ALAIN MV3 12 NL 01:31:33 9,8 111
122 158 CABOT LAURENT MSE 34 NL 01:31:54 9,8 112
123 157 GAUDON PHILIPPE MV1 44 NL 01:31:58 9,8 113
124 15 VLEMINCKX BERNARD MV3 13 NL 01:32:00 9,8 114
125 87 CADAUX PATRICK MV1 45 ASBAI 01:32:05 9,8 115
126 28 TICHET JEAN-MARIE MV2 24 NL 01:32:51 9,7 116
127 43 LEGROS YVES MV1 46 VCAN 01:32:52 9,7 117
128 96 MARRAGOU GERARD MV3 14 VCAN 01:33:11 9,7 118
129 75 CUQ PHILIPPE MV1 47 NL 01:33:15 9,7 119
130 74 KINACH LILIAN MV1 48 F.S.P.N 01:33:15 9,7 120
131 51 DAJEAN YVES MV3 15 Groudon Cyclisme 01:33:53 9,6 121
132 146 GAMEL MARTY CHRISTINE FV1 4 Coureur de fond villeneuvois 01:34:27 9,5 11
133 165 ROUMAGNAC SEVERINE FSE 6 NL 01:34:36 9,5 12
134 73 CALMELS ANNE-MARIE FV2 1 Boucle Druelloise 01:34:39 9,5 13
135 89 BELVEZE JEAN PIERRE MV2 25 ASBAI 01:34:57 9,5 122
136 129 LOPEZ JEAN PHILIPPE MV1 49 NL 01:35:04 9,5 123
137 53 TARDIEU MICHEL MV2 26 NL 01:35:09 9,5 124
138 128 MOZERAUD DENISE FV2 2 NL 01:35:48 9,4 14
139 31 HERMET SÉBASTIEN MV1 50 NL 01:36:15 9,4 125
140 42 MAS MARTINE FV1 5 NL 01:36:17 9,3 15
141 45 MONTAMAT MYRIAM MV1 51 NL 01:36:26 9,3 126
142 78 ROMIGUIERE VÉRONIQUE FV1 6 NL 01:36:43 9,3 16
143 18 GUTIN SYLVIE FV1 7 NL 01:36:58 9,3 17
144 26 MOMBOISSE JOËLLE FV1 8 courir au féminin VDR 01:38:07 9,2 18
145 95 JEANJEAN PIERRE MSE 35 AOV RUGBY 01:38:49 9,1 127
146 38 GARRIC HERVÉ MV1 52 NL 01:38:53 9,1 128
147 81 VLEMINCKX EVELYNE FV3 3 NL 01:39:54 9,0 19
148 130 LOPEZ CHRISTEL FV1 9 NL 01:40:32 9,0 20
149 138 AUSTRUY GEORGES MV2 27 TOUROULIS 01:40:33 9,0 129
150 142 PUEL PATRICE MV1 53 NL 01:40:33 9,0 130
151 102 MONTSERAT DANIEL MV1 54 NL 01:40:33 8,9 131
152 143 VERLAGUET PATRICE MV1 55 NL 01:40:34 8,9 132
153 144 DELAVERGNE JEAN MARC MV1 56 NL 01:43:41 8,7 133
154 17 BATTEUX JOHANNA FV1 10 WRO Ris Orangis 01:44:18 8,6 21
155 12 DELDON JEAN-PHILIPPE MV2 28 ACRA Arles 01:45:09 8,6 134
156 103 RIVET LIONEL   1 NL 01:46:12 8,5 135
157 112 PRADEL MICHEL MV4 1 TOUROULIS 01:46:46 8,4 136
158 2 BARTHE MICHEL MV3 16 CCAC Sport pour tous 01:46:46 8,4 137
159 61 NOWAK PASCAL MV1 57 NL 01:47:07 8,4 138
160 30 IDMTAL CÉCILE FV2 3 NL 01:48:00 8,3 22
161 29 BEAUVALLET DIEYNABA FV1 11 NL 01:49:08 8,2 23
162 46 RESSEGUIER DENIS MV3 17 Gigouzac 01:49:08 8,2 139
163 131 LACOMBE ANNIE FV1 12 NL 01:49:08 8,2 24
164 20 GOMEZ ROSALINA FV2 4 NL 01:51:54 8,0 25
165 7 GONDE THÉRÈSE FV4 1 ACRA Arles 01:52:12 8,0 26
166 52 DONNADIEU JEAN-PIERRE MV3 18 NL 01:56:34 7,7 140
167 27 CORN MONIQUE FV3 4 NL 01:59:32 7,5 27
168 92 PAILLAUD PATRICK MV2 29 NL 01:59:40 7,5 141
169 16 COUSIN MÉLODY FES 1 SRA 02:07:14 7,1 28
170 41 MASSOL JOËL MV2 0 Courir Levezou 00:00:00 ABD Abd